Time;durP1;ratioP1;P1;durP2;ratioP2;P2;SDS_P1;SDS_P2;PMS_P1;PMS_P2;Temp;Humidity;BMP_temperature;BMP_pressure;BME280_temperature;BME280_humidity;BME280_pressure;Samples;Min_cycle;Max_cycle;Signal;HPM_P1;HPM_P2
2023/07/12 05:47:00;;;;;;;;;;;;;;;;;;6238445;22;1396544;-88
2023/07/12 05:49:26;;;;;;;;;;;;;;;;;;6312271;22;19910;-89
2023/07/12 05:51:52;;;;;;;;;;;;;;;;;;6339946;22;19967;-88
2023/07/12 05:54:17;;;;;;;;;;;;;;;;;;6339939;22;20214;-88
2023/07/12 05:56:42;;;;;;;;;;;;;;;;;;6339963;22;19913;-89
2023/07/12 05:59:09;;;;;;;;;;;;;;;;;;6340310;22;19981;-91
2023/07/12 06:01:34;;;;;;;;;;;;;;;;;;6340404;22;19981;-93
2023/07/12 06:03:59;;;;;;;;;;;;;;;;;;6342039;22;20222;-94
2023/07/12 06:06:25;;;;;;;;;;;;;;;;;;6343370;22;19906;-94
2023/07/12 09:30:35;;;;;;;;;;;;;;;;;;6194508;22;2194445;-88
2023/07/12 09:33:03;;;;;;;;;;;;;;;;;;6246444;23;20323;-87
2023/07/12 09:35:32;;;;;;;;;;;;;;;;;;6246720;23;19922;-87
2023/07/12 09:38:04;;;;;;;;;;;;;;;;;;6248268;22;19916;-94
2023/07/12 09:40:41;;;;;;;;;;;;;;;;;;6247641;23;20313;-90
2023/07/12 09:43:36;;;;;;;;;;;;;;;;;;6247377;23;19911;-90
2023/07/12 09:46:07;;;;;;;;;;;;;;;;;;6253808;22;19911;-89
2023/07/12 09:48:51;;;;;;;;;;;;;;;;;;6246828;23;19938;-85
2023/07/12 09:51:28;;;;;;;;;;;;;;;;;;6248306;23;19918;-84
2023/07/12 09:54:06;;;;;;;;;;;;;;;;;;6248179;22;19913;-84
2023/07/12 09:56:34;;;;;;;;;;;;;;;;;;6248091;22;19912;-85
2023/07/12 09:59:06;;;;;;;;;;;;;;;;;;6248093;22;19912;-87
2023/07/12 10:01:37;;;;;;;;;;;;;;;;;;6248390;23;19981;-91
2023/07/12 10:04:29;;;;;;;;;;;;;;;;;;6251817;22;19995;-89
2023/07/12 10:06:55;;;;;;;;;;;;;;;;;;6244799;23;19980;-88
2023/07/12 10:09:26;;;;;;;;;;;;;;;;;;6259208;22;20373;-90
2023/07/12 10:12:09;;;;;;;;;;;;;;;;;;6270603;22;19915;-89
2023/07/12 10:14:38;;;;;;;6.38;4.40;;;;;;;;;;6271221;22;19902;-91
2023/07/12 10:17:05;;;;;;;7.88;4.78;;;;;;;;;;6271264;22;20024;-89
2023/07/12 10:19:38;;;;;;;5.82;4.47;;;;;;;;;;6272418;22;20003;-91
2023/07/12 10:22:15;;;;;;;4.53;4.13;;;;;;;;;;6273736;22;19980;-91
2023/07/12 10:24:45;;;;;;;4.03;3.65;;;;;;;;;;6256810;22;20036;-92
2023/07/12 10:27:28;;;;;;;4.90;4.20;;;;;;;;;;6249404;23;20378;-95
2023/07/12 10:30:10;;;;;;;4.30;3.95;;;;;;;;;;6248070;23;20011;-90
2023/07/12 10:32:41;;;;;;;5.28;3.60;;;;;;;;;;6249017;22;20011;-94
2023/07/12 10:35:19;;;;;;;;;;;;;;;;;;6248390;22;20008;-93
2023/07/12 10:37:51;;;;;;;4.53;3.33;;;;;;;;;;6246679;23;19957;-95
2023/07/12 10:40:24;;;;;;;3.80;3.50;;;;;;;;;;6246692;23;20008;-94
2023/07/12 10:42:58;;;;;;;4.22;3.50;;;;;;;;;;6249189;23;19908;-93
2023/07/12 10:45:46;;;;;;;6.00;3.80;;;;;;;;;;6258360;23;20079;-96
2023/07/12 10:48:27;;;;;;;4.23;3.40;;;;;;;;;;6283753;22;20028;-95
2023/07/12 10:50:56;;;;;;;3.40;3.10;;;;;;;;;;6257735;22;20219;-94
2023/07/12 10:54:01;;;;;;;3.50;3.20;;;;;;;;;;6285745;22;20000;-95
2023/07/12 10:56:33;;;;;;;4.47;3.33;;;;;;;;;;6107616;23;20042;-96
2023/07/12 10:59:02;;;;;;;6.03;3.17;;;;;;;;;;6130276;23;20005;-96
2023/07/12 11:01:48;;;;;;;;;;;;;;;;;;6111743;23;20002;-96
2023/07/12 11:04:18;;;;;;;2.45;2.22;;;;;;;;;;6127835;23;19984;-96
2023/07/12 11:07:24;;;;;;;2.50;2.30;;;;;;;;;;6126702;23;20006;-94
2023/07/12 11:09:54;;;;;;;3.40;2.60;;;;;;;;;;6100569;23;20118;-94
2023/07/12 11:12:53;;;;;;;3.20;2.88;;;;;;;;;;6129585;23;20447;-96
2023/07/12 11:15:24;;;;;;;5.07;2.72;;;;;;;;;;6043248;23;20416;-96
2023/07/12 11:18:09;;;;;;;3.72;2.90;;;;;;;;;;6059552;23;20021;-96
2023/07/12 11:20:58;;;;;;;4.28;2.88;;;;;;;;;;6044030;23;20014;-94
2023/07/12 11:23:35;;;;;;;3.53;2.92;;;;;;;;;;6040601;23;20011;-95
2023/07/12 11:26:22;;;;;;;5.22;3.50;;;;;;;;;;6043904;23;20018;-95
2023/07/12 11:28:48;;;;;;;3.10;2.80;;;;;;;;;;6160844;23;20016;-95
2023/07/12 11:31:26;;;;;;;3.67;3.08;;;;;;;;;;6187194;23;20009;-93
2023/07/12 11:34:14;;;;;;;4.18;3.65;;;;;;;;;;6183919;23;20344;-90
2023/07/12 11:36:40;;;;;;;;;;;;;;;;;;6184454;23;20012;-91
2023/07/12 11:39:18;;;;;;;3.53;2.80;;;;;;;;;;6184320;23;19930;-91
2023/07/12 11:41:58;;;;;;;4.20;3.00;;;;;;;;;;6184002;23;20037;-90
2023/07/12 11:44:25;;;;;;;3.35;2.83;;;;;;;;;;6159221;23;20009;-91
2023/07/12 16:56:41;;;;;;;5.40;4.47;;;;;;;;;;6240393;22;20008;-93
2023/07/12 16:59:06;;;;;;;7.05;4.50;;;;;;;;;;6253232;22;20018;-92
2023/07/12 17:01:34;;;;;;;7.20;5.10;;;;;;;;;;6252631;22;20038;-92
2023/07/12 17:04:01;;;;;;;5.30;4.57;;;;;;;;;;6281719;22;20028;-94
2023/07/12 17:06:28;;;;;;;8.38;4.82;;;;;;;;;;6281734;22;20000;-93
2023/07/12 17:08:56;;;;;;;5.50;4.28;;;;;;;;;;6282482;22;20004;-90
2023/07/12 17:11:25;;;;;;;5.07;4.53;;;;;;;;;;6283145;22;19999;-95
2023/07/12 17:13:52;;;;;;;5.95;5.35;;;;;;;;;;6282235;22;20081;-92
2023/07/12 17:16:18;;;;;;;7.72;6.53;;;;;;;;;;6279056;22;20027;-92
2023/07/12 17:18:45;;;;;;;12.45;6.07;;;;;;;;;;6279890;22;20090;-95
2023/07/12 17:21:17;;;;;;;6.57;5.13;;;;;;;;;;6277619;22;20007;-89
2023/07/12 17:23:43;;;;;;;6.25;5.57;;;;;;;;;;6278569;22;20008;-89
2023/07/12 17:26:11;;;;;;;6.55;5.47;;;;;;;;;;6278382;22;20010;-85
2023/07/12 17:28:37;;;;;;;7.45;5.55;;;;;;;;;;6278589;22;20011;-86
2023/07/12 17:31:20;;;;;;;7.22;5.90;;;;;;;;;;6279209;22;19999;-89
2023/07/12 17:33:46;;;;;;;7.88;6.30;;;;;;;;;;6278669;22;20038;-87
2023/07/12 17:36:14;;;;;;;8.98;5.90;;;;;;;;;;6278725;22;20011;-85
2023/07/12 17:38:41;;;;;;;5.50;4.67;;;;;;;;;;6278476;22;20006;-85
2023/07/12 17:41:17;;;;;;;9.75;5.35;;;;;;;;;;6278450;22;20000;-86
2023/07/12 17:43:42;;;;;;;6.40;4.32;;;;;;;;;;6278676;22;20003;-87
2023/07/12 17:46:10;;;;;;;8.48;5.10;;;;;;;;;;6279066;22;20412;-89
2023/07/12 17:48:36;;;;;;;8.60;5.65;;;;;;;;;;6278901;22;20000;-90
2023/07/12 17:51:10;;;;;;;8.40;5.25;;;;;;;;;;6277332;22;20003;-89
2023/07/12 17:53:36;;;;;;;10.02;5.70;;;;;;;;;;6278412;22;20007;-89
2023/07/12 17:56:01;;;;;;;11.05;5.60;;;;;;;;;;6278364;22;20331;-89
2023/07/12 17:58:27;;;;;;;8.38;5.05;;;;;;;;;;6250862;22;20007;-89
2023/07/12 18:00:55;;;;;;;10.00;7.40;;;;;;;;;;6278465;22;20007;-91
2023/07/12 18:03:30;;;;;;;10.30;7.05;;;;;;;;;;6251279;22;20008;-88
2023/07/12 18:05:56;;;;;;;8.50;5.13;;;;;;;;;;6278343;22;19999;-92
2023/07/12 18:08:22;;;;;;;7.47;5.32;;;;;;;;;;6280027;22;20305;-85
2023/07/12 18:10:57;;;;;;;8.27;5.47;;;;;;;;;;6252689;22;20027;-82
2023/07/12 18:13:25;;;;;;;8.52;6.70;;;;;;;;;;6278319;22;20007;-82
2023/07/12 18:15:51;;;;;;;6.68;5.95;;;;;;;;;;6278786;22;20019;-82
2023/07/12 18:18:17;;;;;;;9.30;6.35;;;;;;;;;;6279447;22;20488;-86
2023/07/12 18:20:45;;;;;;;8.05;5.90;;;;;;;;;;6279218;22;19995;-82
2023/07/12 18:23:23;;;;;;;9.55;5.47;;;;;;;;;;6278444;22;20015;-89
2023/07/12 18:25:49;;;;;;;6.72;6.03;;;;;;;;;;6278399;22;20142;-90
2023/07/12 18:28:17;;;;;;;9.07;5.93;;;;;;;;;;6278552;22;20004;-89
2023/07/12 18:30:51;;;;;;;8.27;5.57;;;;;;;;;;6278511;22;20000;-90
2023/07/12 18:33:22;;;;;;;8.15;6.05;;;;;;;;;;6251556;22;20378;-89
2023/07/12 18:35:50;;;;;;;9.85;5.63;;;;;;;;;;6278171;22;20049;-89
2023/07/12 18:38:20;;;;;;;10.80;5.87;;;;;;;;;;6277845;22;20011;-89
2023/07/12 18:40:47;;;;;;;10.07;5.80;;;;;;;;;;6250768;22;20038;-89
2023/07/12 18:43:18;;;;;;;6.82;5.10;;;;;;;;;;6250659;22;20011;-89
2023/07/12 18:45:44;;;;;;;5.97;5.32;;;;;;;;;;6277808;22;20008;-89
2023/07/12 18:48:10;;;;;;;8.20;5.35;;;;;;;;;;6277867;22;20453;-88
2023/07/12 18:50:40;;;;;;;6.10;5.45;;;;;;;;;;6250899;22;20430;-88
2023/07/12 18:53:12;;;;;;;9.38;7.72;;;;;;;;;;6277816;22;20034;-90
2023/07/12 18:55:37;;;;;;;10.60;6.63;;;;;;;;;;6250877;22;20003;-91
2023/07/12 18:58:04;;;;;;;9.88;5.60;;;;;;;;;;6277843;22;20010;-91
2023/07/12 19:00:30;;;;;;;10.07;5.82;;;;;;;;;;6279017;22;20049;-89
2023/07/12 19:02:56;;;;;;;8.82;5.78;;;;;;;;;;6251336;22;20431;-91
2023/07/12 19:05:25;;;;;;;6.50;5.40;;;;;;;;;;6251838;22;20014;-88
2023/07/12 19:07:51;;;;;;;6.28;5.68;;;;;;;;;;6252340;22;20082;-88
2023/07/12 19:10:18;;;;;;;7.78;5.60;;;;;;;;;;6279053;22;19995;-89
2023/07/12 19:12:45;;;;;;;8.45;5.60;;;;;;;;;;6250952;22;20461;-90
2023/07/12 19:15:21;;;;;;;8.90;5.95;;;;;;;;;;6278827;22;20007;-89
2023/07/12 19:17:47;;;;;;;7.53;6.15;;;;;;;;;;6251198;22;20102;-88
2023/07/12 19:20:13;;;;;;;13.23;6.82;;;;;;;;;;6277948;22;20006;-88
2023/07/12 19:22:39;;;;;;;10.57;6.47;;;;;;;;;;6278367;22;20358;-88
2023/07/12 19:25:05;;;;;;;10.65;6.55;;;;;;;;;;6278525;22;20482;-88
2023/07/12 19:27:31;;;;;;;8.40;6.35;;;;;;;;;;6250755;22;20004;-87
2023/07/12 19:29:57;;;;;;;11.77;6.10;;;;;;;;;;6278561;22;20011;-87
2023/07/12 19:32:22;;;;;;;11.68;7.03;;;;;;;;;;6277694;22;20327;-89
2023/07/12 19:34:50;;;;;;;10.52;6.55;;;;;;;;;;6277523;22;20316;-89
2023/07/12 19:37:18;;;;;;;11.38;7.53;;;;;;;;;;6277533;22;20075;-88
2023/07/12 19:39:44;;;;;;;13.05;6.70;;;;;;;;;;6277322;22;20010;-89
2023/07/12 19:42:18;;;;;;;11.57;7.20;;;;;;;;;;6250209;22;20000;-89
2023/07/12 19:44:43;;;;;;;15.77;6.45;;;;;;;;;;6278071;22;20016;-89
2023/07/12 19:47:13;;;;;;;12.88;6.35;;;;;;;;;;6277266;22;20027;-88
2023/07/12 19:49:39;;;;;;;16.48;7.13;;;;;;;;;;6278185;22;20414;-87
2023/07/12 19:52:10;;;;;;;10.60;6.93;;;;;;;;;;6278993;22;20058;-85
2023/07/12 19:54:36;;;;;;;16.20;7.10;;;;;;;;;;6251092;22;20016;-86
2023/07/12 19:57:02;;;;;;;10.95;6.57;;;;;;;;;;6278033;22;20069;-85
2023/07/12 19:59:28;;;;;;;13.13;6.85;;;;;;;;;;6277412;22;20000;-84
2023/07/12 20:01:54;;;;;;;14.10;6.43;;;;;;;;;;6277182;22;20011;-90
2023/07/12 20:04:19;;;;;;;13.05;6.15;;;;;;;;;;6277571;22;20031;-92
2023/07/12 20:06:45;;;;;;;13.10;6.95;;;;;;;;;;6277128;22;20002;-81
2023/07/12 20:09:11;;;;;;;11.95;6.28;;;;;;;;;;6277355;22;20003;-86
2023/07/12 20:11:37;;;;;;;8.60;6.47;;;;;;;;;;6277408;22;20027;-84
2023/07/12 20:14:02;;;;;;;11.32;6.63;;;;;;;;;;6276936;22;20049;-89
2023/07/12 20:16:28;;;;;;;11.02;6.30;;;;;;;;;;6277179;22;19999;-84
2023/07/12 20:18:54;;;;;;;10.30;6.40;;;;;;;;;;6249978;22;20007;-87
2023/07/12 20:21:20;;;;;;;11.57;6.80;;;;;;;;;;6277135;22;20133;-88
2023/07/12 20:23:47;;;;;;;12.60;6.63;;;;;;;;;;6277046;22;20006;-94
2023/07/12 20:26:13;;;;;;;13.40;7.78;;;;;;;;;;6277330;22;20022;-87
2023/07/12 20:28:39;;;;;;;13.73;6.88;;;;;;;;;;6277523;22;20004;-87
2023/07/12 20:31:09;;;;;;;12.73;6.90;;;;;;;;;;6277156;22;20431;-87
2023/07/12 20:33:35;;;;;;;11.68;6.97;;;;;;;;;;6276991;22;20454;-88
2023/07/12 20:36:00;;;;;;;11.80;7.13;;;;;;;;;;6277166;22;20028;-93
2023/07/12 20:38:28;;;;;;;10.93;6.80;;;;;;;;;;6277092;22;20291;-87
2023/07/12 20:40:54;;;;;;;10.98;6.55;;;;;;;;;;6277161;22;20081;-91
2023/07/12 20:43:19;;;;;;;9.10;6.03;;;;;;;;;;6277412;22;20039;-87
2023/07/12 20:45:45;;;;;;;8.35;6.22;;;;;;;;;;6277038;22;20027;-90
2023/07/12 20:48:12;;;;;;;11.80;6.38;;;;;;;;;;6277184;22;19999;-91
2023/07/12 20:50:38;;;;;;;11.32;7.30;;;;;;;;;;6276933;22;20082;-86
2023/07/12 20:53:06;;;;;;;15.75;7.35;;;;;;;;;;6276980;22;20057;-88
2023/07/12 20:55:34;;;;;;;10.57;6.65;;;;;;;;;;6277207;22;20077;-86
2023/07/12 20:57:59;;;;;;;11.48;6.55;;;;;;;;;;6276755;22;20082;-85
2023/07/12 21:00:26;;;;;;;11.32;7.03;;;;;;;;;;6276899;22;20023;-85
2023/07/12 21:02:52;;;;;;;13.10;6.15;;;;;;;;;;6278837;22;20045;-88
2023/07/12 21:05:18;;;;;;;12.13;6.15;;;;;;;;;;6278719;22;19999;-84
2023/07/12 21:07:46;;;;;;;12.57;7.20;;;;;;;;;;6278649;22;20011;-85
2023/07/12 21:10:14;;;;;;;11.00;6.88;;;;;;;;;;6278713;22;20056;-84
2023/07/12 21:12:40;;;;;;;12.25;6.85;;;;;;;;;;6278721;22;20039;-88
2023/07/12 21:15:06;;;;;;;13.38;6.80;;;;;;;;;;6278536;22;20053;-88
2023/07/12 21:17:33;;;;;;;12.40;6.63;;;;;;;;;;6278560;22;20000;-89
2023/07/12 21:19:59;;;;;;;10.18;6.32;;;;;;;;;;6278576;22;20006;-85
2023/07/12 21:22:25;;;;;;;11.00;6.72;;;;;;;;;;6278597;22;20008;-85
2023/07/12 21:24:51;;;;;;;11.65;7.00;;;;;;;;;;6278896;22;20003;-88
2023/07/12 21:27:17;;;;;;;12.55;7.82;;;;;;;;;;6278746;22;20414;-87
2023/07/12 21:29:42;;;;;;;12.45;6.18;;;;;;;;;;6278689;22;20039;-85
2023/07/12 21:32:08;;;;;;;9.13;5.32;;;;;;;;;;6278711;22;20053;-88
2023/07/12 21:34:33;;;;;;;11.95;5.07;;;;;;;;;;6278289;22;20458;-88
2023/07/12 21:36:59;;;;;;;10.02;4.60;;;;;;;;;;6278635;22;20000;-88
2023/07/12 21:39:25;;;;;;;10.23;5.07;;;;;;;;;;6278714;22;20411;-88
2023/07/12 21:41:50;;;;;;;10.23;5.10;;;;;;;;;;6278816;22;20007;-87
2023/07/12 21:44:15;;;;;;;9.73;4.45;;;;;;;;;;6278504;22;20141;-91
2023/07/12 21:46:41;;;;;;;7.15;4.95;;;;;;;;;;6251481;22;20000;-88
2023/07/12 21:49:06;;;;;;;14.23;5.78;;;;;;;;;;6278406;22;20070;-87
2023/07/12 21:51:32;;;;;;;12.70;6.20;;;;;;;;;;6277382;22;20000;-87
2023/07/12 21:53:58;;;;;;;15.35;6.80;;;;;;;;;;6278059;22;20057;-86
2023/07/12 21:56:24;;;;;;;14.65;4.70;;;;;;;;;;6278146;22;20042;-89
2023/07/12 21:58:50;;;;;;;9.93;4.32;;;;;;;;;;6251683;22;20052;-91
2023/07/12 22:01:17;;;;;;;12.57;4.07;;;;;;;;;;6252073;22;20023;-92
2023/07/12 22:03:43;;;;;;;8.75;5.10;;;;;;;;;;6251003;22;20061;-90
2023/07/12 22:06:14;;;;;;;8.48;5.25;;;;;;;;;;6251516;22;20099;-91
2023/07/12 22:08:40;;;;;;;4.80;3.80;;;;;;;;;;6250968;22;20007;-91
2023/07/12 22:11:24;;;;;;;9.00;4.35;;;;;;;;;;6278471;22;20030;-90
2023/07/12 22:13:52;;;;;;;6.05;4.70;;;;;;;;;;6250851;22;20033;-89
2023/07/12 22:16:21;;;;;;;8.88;5.30;;;;;;;;;;6250945;22;20000;-90
2023/07/12 22:18:47;;;;;;;8.75;6.03;;;;;;;;;;6250659;22;20086;-89
2023/07/12 22:21:15;;;;;;;9.48;6.53;;;;;;;;;;6278372;22;20053;-91
2023/07/12 22:23:42;;;;;;;11.73;6.30;;;;;;;;;;6253360;22;20029;-95
2023/07/12 22:26:10;;;;;;;12.63;7.57;;;;;;;;;;6253795;22;20003;-94
2023/07/12 22:28:36;;;;;;;11.13;7.97;;;;;;;;;;6261407;22;20434;-96
2023/07/12 22:31:02;;;;;;;14.00;8.63;;;;;;;;;;6285781;22;20027;-95
2023/07/12 22:33:28;;;;;;;15.45;9.02;;;;;;;;;;6251779;22;20007;-91
2023/07/12 22:35:54;;;;;;;11.80;8.07;;;;;;;;;;6252777;22;20008;-89
2023/07/12 22:38:20;;;;;;;13.70;8.52;;;;;;;;;;6250855;22;20492;-90
2023/07/12 22:40:46;;;;;;;16.25;8.52;;;;;;;;;;6250895;22;19996;-90
2023/07/12 22:43:12;;;;;;;12.02;8.77;;;;;;;;;;6250802;22;20004;-90
2023/07/12 22:45:38;;;;;;;13.63;9.10;;;;;;;;;;6250681;22;20407;-90
2023/07/12 22:48:04;;;;;;;14.00;8.80;;;;;;;;;;6250652;22;20062;-90
2023/07/12 22:50:30;;;;;;;12.93;8.10;;;;;;;;;;6277910;22;20422;-90
2023/07/12 22:52:56;;;;;;;14.88;8.57;;;;;;;;;;6277932;22;20003;-89
2023/07/12 22:55:22;;;;;;;12.48;7.70;;;;;;;;;;6277627;22;20493;-89
2023/07/12 22:57:48;;;;;;;14.32;8.80;;;;;;;;;;6277915;22;20330;-89
2023/07/12 23:00:20;;;;;;;11.90;8.25;;;;;;;;;;6277840;22;20078;-89
2023/07/12 23:02:46;;;;;;;13.77;8.38;;;;;;;;;;6251406;22;20011;-89
2023/07/12 23:05:13;;;;;;;16.20;8.63;;;;;;;;;;6279964;22;20516;-89
2023/07/12 23:07:38;;;;;;;18.70;8.93;;;;;;;;;;6280207;22;20070;-89
2023/07/12 23:10:04;;;;;;;16.70;9.10;;;;;;;;;;6288689;22;20000;-89
2023/07/12 23:12:31;;;;;;;14.05;8.23;;;;;;;;;;6299418;22;20004;-90
2023/07/12 23:14:56;;;;;;;14.63;8.45;;;;;;;;;;6275196;22;20004;-89
2023/07/12 23:17:22;;;;;;;15.73;8.38;;;;;;;;;;6301670;22;20018;-89
2023/07/12 23:19:48;;;;;;;14.68;8.05;;;;;;;;;;6276962;22;20015;-88
2023/07/12 23:22:17;;;;;;;18.75;8.95;;;;;;;;;;6299669;22;20003;-90
2023/07/12 23:24:43;;;;;;;;;;;;;;;;;;6254674;22;20030;-89
2023/07/12 23:27:08;;;;;;;14.80;8.30;;;;;;;;;;6252317;22;20314;-89
2023/07/12 23:29:34;;;;;;;14.23;8.73;;;;;;;;;;6252129;22;20007;-89
2023/07/12 23:32:04;;;;;;;16.20;8.88;;;;;;;;;;6278399;22;20323;-90
2023/07/12 23:34:32;;;;;;;15.85;9.57;;;;;;;;;;6277570;22;20007;-90
2023/07/12 23:37:02;;;;;;;11.77;8.55;;;;;;;;;;6250482;22;20031;-89
2023/07/12 23:39:28;;;;;;;13.63;8.60;;;;;;;;;;6277680;22;20003;-89
2023/07/12 23:41:54;;;;;;;15.32;7.70;;;;;;;;;;6250201;22;20313;-88
2023/07/12 23:44:20;;;;;;;13.52;8.23;;;;;;;;;;6250432;22;20007;-90
2023/07/12 23:46:45;;;;;;;15.55;8.75;;;;;;;;;;6277524;22;20031;-90
2023/07/12 23:49:12;;;;;;;19.33;8.70;;;;;;;;;;6277282;22;20442;-90
2023/07/12 23:51:39;;;;;;;16.88;8.48;;;;;;;;;;6277466;22;20369;-89
2023/07/12 23:54:06;;;;;;;15.35;8.55;;;;;;;;;;6277252;22;20331;-90
2023/07/12 23:56:34;;;;;;;14.98;8.50;;;;;;;;;;6277307;22;20065;-89
2023/07/12 23:59:01;;;;;;;14.97;8.47;;;;;;;;;;6277702;22;20004;-90
